sensor_id;sensor_type;location;lat;lon;timestamp;P1;durP1;ratioP1;P2;durP2;ratioP2
75639;SDS011;64233;51.486;6.332;2023-04-08T00:02:24;33.42;;;14.02;;
75639;SDS011;64233;51.486;6.332;2023-04-08T00:04:49;31.63;;;13.95;;
75639;SDS011;64233;51.486;6.332;2023-04-08T00:07:14;34.70;;;14.95;;
75639;SDS011;64233;51.486;6.332;2023-04-08T00:09:40;31.02;;;13.55;;
75639;SDS011;64233;51.486;6.332;2023-04-08T00:12:05;35.97;;;13.82;;
75639;SDS011;64233;51.486;6.332;2023-04-08T00:14:31;31.52;;;15.30;;
75639;SDS011;64233;51.486;6.332;2023-04-08T00:16:56;32.47;;;15.15;;
75639;SDS011;64233;51.486;6.332;2023-04-08T00:19:21;27.63;;;14.63;;
75639;SDS011;64233;51.486;6.332;2023-04-08T00:21:47;29.00;;;13.48;;
75639;SDS011;64233;51.486;6.332;2023-04-08T00:24:12;25.95;;;13.57;;
75639;SDS011;64233;51.486;6.332;2023-04-08T00:26:37;27.83;;;13.88;;
75639;SDS011;64233;51.486;6.332;2023-04-08T00:29:03;37.67;;;14.80;;
75639;SDS011;64233;51.486;6.332;2023-04-08T00:31:28;36.72;;;15.45;;
75639;SDS011;64233;51.486;6.332;2023-04-08T00:33:53;35.65;;;15.00;;
75639;SDS011;64233;51.486;6.332;2023-04-08T00:36:19;30.45;;;13.98;;
75639;SDS011;64233;51.486;6.332;2023-04-08T00:38:44;27.42;;;13.23;;
75639;SDS011;64233;51.486;6.332;2023-04-08T00:41:09;23.33;;;11.52;;
75639;SDS011;64233;51.486;6.332;2023-04-08T00:43:34;30.65;;;13.45;;
75639;SDS011;64233;51.486;6.332;2023-04-08T00:46:00;30.50;;;13.50;;
75639;SDS011;64233;51.486;6.332;2023-04-08T00:48:25;25.85;;;12.52;;
75639;SDS011;64233;51.486;6.332;2023-04-08T00:50:51;29.25;;;13.70;;
75639;SDS011;64233;51.486;6.332;2023-04-08T00:53:17;27.77;;;13.13;;
75639;SDS011;64233;51.486;6.332;2023-04-08T00:55:43;28.90;;;12.90;;
75639;SDS011;64233;51.486;6.332;2023-04-08T00:58:09;24.42;;;12.57;;
75639;SDS011;64233;51.486;6.332;2023-04-08T01:00:35;27.02;;;14.52;;
75639;SDS011;64233;51.486;6.332;2023-04-08T01:03:17;27.70;;;13.73;;
75639;SDS011;64233;51.486;6.332;2023-04-08T01:08:51;28.48;;;12.63;;
75639;SDS011;64233;51.486;6.332;2023-04-08T01:11:16;27.27;;;12.98;;
75639;SDS011;64233;51.486;6.332;2023-04-08T01:13:43;30.83;;;14.20;;
75639;SDS011;64233;51.486;6.332;2023-04-08T01:16:14;33.45;;;15.63;;
75639;SDS011;64233;51.486;6.332;2023-04-08T01:18:42;28.85;;;15.07;;
75639;SDS011;64233;51.486;6.332;2023-04-08T01:21:08;28.50;;;13.45;;
75639;SDS011;64233;51.486;6.332;2023-04-08T01:23:45;26.73;;;13.25;;
75639;SDS011;64233;51.486;6.332;2023-04-08T01:26:22;27.30;;;14.43;;
75639;SDS011;64233;51.486;6.332;2023-04-08T01:28:50;30.83;;;13.50;;
75639;SDS011;64233;51.486;6.332;2023-04-08T01:31:18;28.92;;;15.63;;
75639;SDS011;64233;51.486;6.332;2023-04-08T01:33:45;29.13;;;14.20;;
75639;SDS011;64233;51.486;6.332;2023-04-08T01:36:11;28.40;;;15.15;;
75639;SDS011;64233;51.486;6.332;2023-04-08T01:38:39;29.60;;;12.45;;
75639;SDS011;64233;51.486;6.332;2023-04-08T01:41:07;29.58;;;12.82;;
75639;SDS011;64233;51.486;6.332;2023-04-08T01:43:34;27.50;;;14.40;;
75639;SDS011;64233;51.486;6.332;2023-04-08T01:45:59;31.02;;;14.00;;
75639;SDS011;64233;51.486;6.332;2023-04-08T01:48:25;29.63;;;14.43;;
75639;SDS011;64233;51.486;6.332;2023-04-08T01:50:52;28.65;;;14.63;;
75639;SDS011;64233;51.486;6.332;2023-04-08T01:53:19;32.15;;;16.05;;
75639;SDS011;64233;51.486;6.332;2023-04-08T01:55:45;26.83;;;13.90;;
75639;SDS011;64233;51.486;6.332;2023-04-08T01:58:15;32.03;;;15.63;;
75639;SDS011;64233;51.486;6.332;2023-04-08T02:00:45;30.80;;;14.88;;
75639;SDS011;64233;51.486;6.332;2023-04-08T02:03:11;28.15;;;13.60;;
75639;SDS011;64233;51.486;6.332;2023-04-08T02:05:38;31.77;;;15.57;;
75639;SDS011;64233;51.486;6.332;2023-04-08T02:08:03;27.35;;;14.13;;
75639;SDS011;64233;51.486;6.332;2023-04-08T02:10:29;29.10;;;14.80;;
75639;SDS011;64233;51.486;6.332;2023-04-08T02:12:55;32.08;;;15.30;;
75639;SDS011;64233;51.486;6.332;2023-04-08T02:15:20;30.90;;;15.93;;
75639;SDS011;64233;51.486;6.332;2023-04-08T02:17:47;29.52;;;15.40;;
75639;SDS011;64233;51.486;6.332;2023-04-08T02:20:17;24.60;;;13.73;;
75639;SDS011;64233;51.486;6.332;2023-04-08T02:22:58;27.10;;;13.68;;
75639;SDS011;64233;51.486;6.332;2023-04-08T02:25:29;29.13;;;13.20;;
75639;SDS011;64233;51.486;6.332;2023-04-08T02:27:59;31.85;;;13.80;;
75639;SDS011;64233;51.486;6.332;2023-04-08T02:30:27;32.40;;;14.07;;
75639;SDS011;64233;51.486;6.332;2023-04-08T02:32:54;32.65;;;16.02;;
75639;SDS011;64233;51.486;6.332;2023-04-08T02:35:20;22.50;;;12.23;;
75639;SDS011;64233;51.486;6.332;2023-04-08T02:37:47;25.45;;;13.70;;
75639;SDS011;64233;51.486;6.332;2023-04-08T02:40:31;31.27;;;14.73;;
75639;SDS011;64233;51.486;6.332;2023-04-08T02:42:57;31.45;;;14.88;;
75639;SDS011;64233;51.486;6.332;2023-04-08T02:45:29;38.17;;;16.58;;
75639;SDS011;64233;51.486;6.332;2023-04-08T02:47:55;36.00;;;15.55;;
75639;SDS011;64233;51.486;6.332;2023-04-08T02:50:21;32.80;;;14.63;;
75639;SDS011;64233;51.486;6.332;2023-04-08T02:52:46;34.35;;;16.60;;
75639;SDS011;64233;51.486;6.332;2023-04-08T02:55:12;31.48;;;15.93;;
75639;SDS011;64233;51.486;6.332;2023-04-08T02:57:40;39.00;;;16.25;;
75639;SDS011;64233;51.486;6.332;2023-04-08T03:00:06;34.00;;;15.23;;
75639;SDS011;64233;51.486;6.332;2023-04-08T03:02:33;27.42;;;13.52;;
75639;SDS011;64233;51.486;6.332;2023-04-08T04:37:03;0.10;;;0.10;;
75639;SDS011;64233;51.486;6.332;2023-04-08T04:39:28;21.48;;;10.48;;
75639;SDS011;64233;51.486;6.332;2023-04-08T04:41:53;22.67;;;11.63;;
75639;SDS011;64233;51.486;6.332;2023-04-08T04:44:19;21.77;;;11.55;;
75639;SDS011;64233;51.486;6.332;2023-04-08T04:46:44;19.92;;;10.38;;
75639;SDS011;64233;51.486;6.332;2023-04-08T04:49:09;22.80;;;11.30;;
75639;SDS011;64233;51.486;6.332;2023-04-08T04:51:35;17.42;;;10.70;;
75639;SDS011;64233;51.486;6.332;2023-04-08T04:54:00;16.98;;;9.93;;
75639;SDS011;64233;51.486;6.332;2023-04-08T04:56:26;19.73;;;11.60;;
75639;SDS011;64233;51.486;6.332;2023-04-08T04:58:51;16.20;;;10.52;;
75639;SDS011;64233;51.486;6.332;2023-04-08T05:01:16;19.65;;;10.18;;
75639;SDS011;64233;51.486;6.332;2023-04-08T05:03:42;18.38;;;10.38;;
75639;SDS011;64233;51.486;6.332;2023-04-08T05:06:07;16.65;;;10.30;;
75639;SDS011;64233;51.486;6.332;2023-04-08T05:08:32;18.77;;;10.05;;
75639;SDS011;64233;51.486;6.332;2023-04-08T05:10:58;20.25;;;11.38;;
75639;SDS011;64233;51.486;6.332;2023-04-08T05:13:26;21.10;;;11.10;;
75639;SDS011;64233;51.486;6.332;2023-04-08T05:15:54;25.00;;;11.65;;
75639;SDS011;64233;51.486;6.332;2023-04-08T05:18:19;23.25;;;12.45;;
75639;SDS011;64233;51.486;6.332;2023-04-08T05:20:44;22.98;;;10.82;;
75639;SDS011;64233;51.486;6.332;2023-04-08T05:23:10;23.20;;;13.02;;
75639;SDS011;64233;51.486;6.332;2023-04-08T05:25:36;22.75;;;12.38;;
75639;SDS011;64233;51.486;6.332;2023-04-08T05:28:02;19.00;;;10.07;;
75639;SDS011;64233;51.486;6.332;2023-04-08T05:30:28;18.35;;;10.43;;
75639;SDS011;64233;51.486;6.332;2023-04-08T05:32:53;19.33;;;10.88;;
75639;SDS011;64233;51.486;6.332;2023-04-08T05:35:18;18.85;;;10.50;;
75639;SDS011;64233;51.486;6.332;2023-04-08T05:37:44;22.55;;;11.73;;
75639;SDS011;64233;51.486;6.332;2023-04-08T05:40:09;23.08;;;12.32;;
75639;SDS011;64233;51.486;6.332;2023-04-08T05:42:35;26.85;;;12.70;;
75639;SDS011;64233;51.486;6.332;2023-04-08T05:45:00;24.52;;;11.20;;
75639;SDS011;64233;51.486;6.332;2023-04-08T05:47:26;16.98;;;9.60;;
75639;SDS011;64233;51.486;6.332;2023-04-08T05:49:51;22.77;;;11.82;;
75639;SDS011;64233;51.486;6.332;2023-04-08T05:52:16;22.45;;;11.85;;
75639;SDS011;64233;51.486;6.332;2023-04-08T05:54:42;17.73;;;9.82;;
75639;SDS011;64233;51.486;6.332;2023-04-08T05:57:07;20.60;;;10.13;;
75639;SDS011;64233;51.486;6.332;2023-04-08T05:59:33;23.50;;;11.65;;
75639;SDS011;64233;51.486;6.332;2023-04-08T06:01:58;21.42;;;12.07;;
75639;SDS011;64233;51.486;6.332;2023-04-08T06:04:23;20.17;;;11.40;;
75639;SDS011;64233;51.486;6.332;2023-04-08T06:06:48;18.15;;;9.52;;
75639;SDS011;64233;51.486;6.332;2023-04-08T06:09:14;20.63;;;12.45;;
75639;SDS011;64233;51.486;6.332;2023-04-08T06:11:39;23.40;;;11.30;;
75639;SDS011;64233;51.486;6.332;2023-04-08T06:14:05;22.33;;;11.63;;
75639;SDS011;64233;51.486;6.332;2023-04-08T06:16:30;19.58;;;11.57;;
75639;SDS011;64233;51.486;6.332;2023-04-08T06:18:55;23.77;;;11.85;;
75639;SDS011;64233;51.486;6.332;2023-04-08T06:21:21;19.58;;;10.13;;
75639;SDS011;64233;51.486;6.332;2023-04-08T06:23:46;23.55;;;12.05;;
75639;SDS011;64233;51.486;6.332;2023-04-08T06:26:11;27.42;;;13.40;;
75639;SDS011;64233;51.486;6.332;2023-04-08T06:28:37;28.58;;;14.85;;
75639;SDS011;64233;51.486;6.332;2023-04-08T06:31:02;23.77;;;10.98;;
75639;SDS011;64233;51.486;6.332;2023-04-08T06:33:29;31.17;;;13.38;;
75639;SDS011;64233;51.486;6.332;2023-04-08T06:36:03;33.38;;;14.52;;
75639;SDS011;64233;51.486;6.332;2023-04-08T06:38:30;28.67;;;13.70;;
75639;SDS011;64233;51.486;6.332;2023-04-08T06:41:02;28.20;;;12.93;;
75639;SDS011;64233;51.486;6.332;2023-04-08T06:43:28;28.05;;;12.70;;
75639;SDS011;64233;51.486;6.332;2023-04-08T06:45:54;26.85;;;13.57;;
75639;SDS011;64233;51.486;6.332;2023-04-08T06:48:20;33.05;;;14.15;;
75639;SDS011;64233;51.486;6.332;2023-04-08T06:50:47;34.40;;;16.15;;
75639;SDS011;64233;51.486;6.332;2023-04-08T06:53:12;33.50;;;14.05;;
75639;SDS011;64233;51.486;6.332;2023-04-08T06:55:38;33.95;;;15.90;;
75639;SDS011;64233;51.486;6.332;2023-04-08T06:58:03;24.67;;;10.68;;
75639;SDS011;64233;51.486;6.332;2023-04-08T07:00:28;25.17;;;13.38;;
75639;SDS011;64233;51.486;6.332;2023-04-08T07:02:54;30.02;;;15.68;;
75639;SDS011;64233;51.486;6.332;2023-04-08T07:05:19;35.03;;;15.32;;
75639;SDS011;64233;51.486;6.332;2023-04-08T07:07:45;34.58;;;14.82;;
75639;SDS011;64233;51.486;6.332;2023-04-08T07:10:11;35.90;;;15.48;;
75639;SDS011;64233;51.486;6.332;2023-04-08T07:12:37;31.23;;;14.55;;
75639;SDS011;64233;51.486;6.332;2023-04-08T07:15:02;33.33;;;16.20;;
75639;SDS011;64233;51.486;6.332;2023-04-08T07:17:28;29.38;;;14.63;;
75639;SDS011;64233;51.486;6.332;2023-04-08T07:19:53;30.52;;;13.25;;
75639;SDS011;64233;51.486;6.332;2023-04-08T07:22:18;32.30;;;15.07;;
75639;SDS011;64233;51.486;6.332;2023-04-08T07:24:43;35.78;;;16.63;;
75639;SDS011;64233;51.486;6.332;2023-04-08T07:27:13;32.20;;;13.52;;
75639;SDS011;64233;51.486;6.332;2023-04-08T07:29:38;31.30;;;14.68;;
75639;SDS011;64233;51.486;6.332;2023-04-08T07:32:04;31.08;;;15.85;;
75639;SDS011;64233;51.486;6.332;2023-04-08T07:34:29;28.15;;;13.05;;
75639;SDS011;64233;51.486;6.332;2023-04-08T07:36:54;32.10;;;16.15;;
75639;SDS011;64233;51.486;6.332;2023-04-08T07:39:19;27.73;;;15.00;;
75639;SDS011;64233;51.486;6.332;2023-04-08T07:41:45;34.60;;;15.10;;
75639;SDS011;64233;51.486;6.332;2023-04-08T07:44:10;29.98;;;15.27;;
75639;SDS011;64233;51.486;6.332;2023-04-08T07:46:36;34.63;;;15.68;;
75639;SDS011;64233;51.486;6.332;2023-04-08T07:49:02;33.40;;;15.23;;
75639;SDS011;64233;51.486;6.332;2023-04-08T07:51:28;29.17;;;14.60;;
75639;SDS011;64233;51.486;6.332;2023-04-08T07:53:53;28.38;;;13.50;;
75639;SDS011;64233;51.486;6.332;2023-04-08T07:56:19;22.00;;;12.02;;
75639;SDS011;64233;51.486;6.332;2023-04-08T07:58:46;27.42;;;14.43;;
75639;SDS011;64233;51.486;6.332;2023-04-08T08:01:15;26.55;;;12.57;;
75639;SDS011;64233;51.486;6.332;2023-04-08T08:03:40;21.10;;;9.50;;
75639;SDS011;64233;51.486;6.332;2023-04-08T08:06:05;24.15;;;12.00;;
75639;SDS011;64233;51.486;6.332;2023-04-08T08:08:31;24.40;;;11.20;;
75639;SDS011;64233;51.486;6.332;2023-04-08T08:10:57;21.85;;;11.77;;
75639;SDS011;64233;51.486;6.332;2023-04-08T08:13:22;25.65;;;13.38;;
75639;SDS011;64233;51.486;6.332;2023-04-08T08:15:51;21.85;;;12.77;;
75639;SDS011;64233;51.486;6.332;2023-04-08T08:18:16;23.88;;;11.38;;
75639;SDS011;64233;51.486;6.332;2023-04-08T08:20:41;19.63;;;10.23;;
75639;SDS011;64233;51.486;6.332;2023-04-08T08:23:07;29.83;;;13.93;;
75639;SDS011;64233;51.486;6.332;2023-04-08T08:25:32;23.67;;;11.77;;
75639;SDS011;64233;51.486;6.332;2023-04-08T08:27:57;24.45;;;12.55;;
75639;SDS011;64233;51.486;6.332;2023-04-08T08:30:22;23.65;;;12.02;;
75639;SDS011;64233;51.486;6.332;2023-04-08T08:32:49;24.20;;;12.75;;
75639;SDS011;64233;51.486;6.332;2023-04-08T08:35:15;24.77;;;13.52;;
75639;SDS011;64233;51.486;6.332;2023-04-08T08:37:41;22.08;;;11.40;;
75639;SDS011;64233;51.486;6.332;2023-04-08T08:40:06;23.85;;;12.15;;
75639;SDS011;64233;51.486;6.332;2023-04-08T08:42:32;19.65;;;11.88;;
75639;SDS011;64233;51.486;6.332;2023-04-08T08:45:00;20.10;;;11.90;;
75639;SDS011;64233;51.486;6.332;2023-04-08T08:47:26;18.98;;;10.73;;
75639;SDS011;64233;51.486;6.332;2023-04-08T08:49:51;20.52;;;10.98;;
75639;SDS011;64233;51.486;6.332;2023-04-08T08:52:17;14.00;;;8.90;;
75639;SDS011;64233;51.486;6.332;2023-04-08T08:54:43;10.88;;;6.70;;
75639;SDS011;64233;51.486;6.332;2023-04-08T08:57:19;12.75;;;5.82;;
75639;SDS011;64233;51.486;6.332;2023-04-08T08:59:45;16.48;;;9.15;;
75639;SDS011;64233;51.486;6.332;2023-04-08T09:02:24;18.08;;;10.65;;
75639;SDS011;64233;51.486;6.332;2023-04-08T09:05:01;18.10;;;10.88;;
75639;SDS011;64233;51.486;6.332;2023-04-08T09:07:28;21.92;;;12.63;;
75639;SDS011;64233;51.486;6.332;2023-04-08T09:09:55;12.93;;;7.75;;
75639;SDS011;64233;51.486;6.332;2023-04-08T09:12:23;10.68;;;7.28;;
75639;SDS011;64233;51.486;6.332;2023-04-08T09:15:08;10.43;;;6.88;;
75639;SDS011;64233;51.486;6.332;2023-04-08T09:17:41;14.07;;;8.15;;
75639;SDS011;64233;51.486;6.332;2023-04-08T09:20:10;22.52;;;11.48;;
75639;SDS011;64233;51.486;6.332;2023-04-08T09:25:22;15.20;;;10.30;;
75639;SDS011;64233;51.486;6.332;2023-04-08T09:27:58;21.90;;;11.65;;
75639;SDS011;64233;51.486;6.332;2023-04-08T09:30:24;20.80;;;11.25;;
75639;SDS011;64233;51.486;6.332;2023-04-08T09:33:00;24.35;;;12.55;;
75639;SDS011;64233;51.486;6.332;2023-04-08T09:35:28;20.08;;;11.57;;
75639;SDS011;64233;51.486;6.332;2023-04-08T09:37:53;22.55;;;11.80;;
75639;SDS011;64233;51.486;6.332;2023-04-08T09:40:18;21.17;;;12.73;;
75639;SDS011;64233;51.486;6.332;2023-04-08T09:42:45;22.63;;;12.50;;
75639;SDS011;64233;51.486;6.332;2023-04-08T09:45:12;17.83;;;11.60;;
75639;SDS011;64233;51.486;6.332;2023-04-08T09:47:55;25.25;;;14.10;;
75639;SDS011;64233;51.486;6.332;2023-04-08T09:50:26;24.13;;;13.17;;
75639;SDS011;64233;51.486;6.332;2023-04-08T09:52:56;20.27;;;12.52;;
75639;SDS011;64233;51.486;6.332;2023-04-08T09:55:26;21.83;;;12.98;;
75639;SDS011;64233;51.486;6.332;2023-04-08T09:57:59;22.23;;;13.23;;
75639;SDS011;64233;51.486;6.332;2023-04-08T10:00:29;25.48;;;15.18;;
75639;SDS011;64233;51.486;6.332;2023-04-08T10:03:12;20.75;;;12.98;;
75639;SDS011;64233;51.486;6.332;2023-04-08T10:05:48;22.48;;;14.88;;
75639;SDS011;64233;51.486;6.332;2023-04-08T10:08:22;26.73;;;14.32;;
75639;SDS011;64233;51.486;6.332;2023-04-08T10:10:55;25.08;;;15.02;;
75639;SDS011;64233;51.486;6.332;2023-04-08T10:13:21;21.65;;;14.00;;
75639;SDS011;64233;51.486;6.332;2023-04-08T10:15:47;23.13;;;13.82;;
75639;SDS011;64233;51.486;6.332;2023-04-08T10:23:04;20.73;;;12.70;;
75639;SDS011;64233;51.486;6.332;2023-04-08T10:25:32;21.48;;;14.00;;
75639;SDS011;64233;51.486;6.332;2023-04-08T10:28:00;22.77;;;13.75;;
75639;SDS011;64233;51.486;6.332;2023-04-08T10:33:16;22.00;;;13.45;;
75639;SDS011;64233;51.486;6.332;2023-04-08T10:38:23;21.20;;;12.82;;
75639;SDS011;64233;51.486;6.332;2023-04-08T10:40:49;20.50;;;12.98;;
75639;SDS011;64233;51.486;6.332;2023-04-08T10:43:15;22.08;;;13.20;;
75639;SDS011;64233;51.486;6.332;2023-04-08T10:45:40;20.38;;;12.25;;
75639;SDS011;64233;51.486;6.332;2023-04-08T10:48:22;19.88;;;14.18;;
75639;SDS011;64233;51.486;6.332;2023-04-08T10:50:58;22.17;;;13.35;;
75639;SDS011;64233;51.486;6.332;2023-04-08T10:53:30;18.05;;;11.23;;
75639;SDS011;64233;51.486;6.332;2023-04-08T10:56:10;20.60;;;12.63;;
75639;SDS011;64233;51.486;6.332;2023-04-08T10:58:51;19.88;;;11.63;;
75639;SDS011;64233;51.486;6.332;2023-04-08T11:01:20;21.50;;;13.75;;
75639;SDS011;64233;51.486;6.332;2023-04-08T11:03:45;19.90;;;11.10;;
75639;SDS011;64233;51.486;6.332;2023-04-08T11:06:11;17.55;;;10.60;;
75639;SDS011;64233;51.486;6.332;2023-04-08T11:08:36;16.77;;;10.55;;
75639;SDS011;64233;51.486;6.332;2023-04-08T11:11:02;18.10;;;11.75;;
75639;SDS011;64233;51.486;6.332;2023-04-08T11:13:32;13.98;;;9.48;;
75639;SDS011;64233;51.486;6.332;2023-04-08T11:15:58;13.13;;;9.80;;
75639;SDS011;64233;51.486;6.332;2023-04-08T11:18:24;11.35;;;8.25;;
75639;SDS011;64233;51.486;6.332;2023-04-08T11:20:50;16.85;;;10.45;;
75639;SDS011;64233;51.486;6.332;2023-04-08T11:23:16;15.05;;;8.98;;
75639;SDS011;64233;51.486;6.332;2023-04-08T11:25:42;14.45;;;9.45;;
75639;SDS011;64233;51.486;6.332;2023-04-08T11:28:09;17.77;;;9.15;;
75639;SDS011;64233;51.486;6.332;2023-04-08T11:30:36;15.25;;;9.30;;
75639;SDS011;64233;51.486;6.332;2023-04-08T11:33:03;13.40;;;7.45;;
75639;SDS011;64233;51.486;6.332;2023-04-08T11:35:28;11.02;;;7.60;;
75639;SDS011;64233;51.486;6.332;2023-04-08T11:37:55;12.05;;;7.60;;
75639;SDS011;64233;51.486;6.332;2023-04-08T11:40:20;9.95;;;6.50;;
75639;SDS011;64233;51.486;6.332;2023-04-08T11:42:46;10.65;;;6.15;;
75639;SDS011;64233;51.486;6.332;2023-04-08T11:45:12;12.68;;;6.47;;
75639;SDS011;64233;51.486;6.332;2023-04-08T11:47:40;9.82;;;5.57;;
75639;SDS011;64233;51.486;6.332;2023-04-08T11:50:05;7.30;;;5.40;;
75639;SDS011;64233;51.486;6.332;2023-04-08T11:52:41;10.65;;;6.68;;
75639;SDS011;64233;51.486;6.332;2023-04-08T11:55:07;11.73;;;7.23;;
75639;SDS011;64233;51.486;6.332;2023-04-08T11:57:34;8.55;;;6.32;;
75639;SDS011;64233;51.486;6.332;2023-04-08T12:00:00;12.15;;;7.55;;
75639;SDS011;64233;51.486;6.332;2023-04-08T12:08:02;13.10;;;7.53;;
75639;SDS011;64233;51.486;6.332;2023-04-08T12:10:34;11.32;;;8.52;;
75639;SDS011;64233;51.486;6.332;2023-04-08T12:12:59;9.25;;;6.25;;
75639;SDS011;64233;51.486;6.332;2023-04-08T12:15:25;12.63;;;7.60;;
75639;SDS011;64233;51.486;6.332;2023-04-08T12:17:50;11.45;;;7.75;;
75639;SDS011;64233;51.486;6.332;2023-04-08T12:20:15;9.53;;;7.40;;
75639;SDS011;64233;51.486;6.332;2023-04-08T12:22:41;8.80;;;4.10;;
75639;SDS011;64233;51.486;6.332;2023-04-08T12:25:06;9.60;;;6.27;;
75639;SDS011;64233;51.486;6.332;2023-04-08T12:27:31;9.43;;;6.32;;
75639;SDS011;64233;51.486;6.332;2023-04-08T12:30:00;12.18;;;8.00;;
75639;SDS011;64233;51.486;6.332;2023-04-08T12:32:26;14.60;;;7.60;;
75639;SDS011;64233;51.486;6.332;2023-04-08T12:34:51;11.80;;;7.32;;
75639;SDS011;64233;51.486;6.332;2023-04-08T12:37:16;8.90;;;6.35;;
75639;SDS011;64233;51.486;6.332;2023-04-08T12:39:41;11.23;;;7.57;;
75639;SDS011;64233;51.486;6.332;2023-04-08T12:42:06;14.17;;;7.40;;
75639;SDS011;64233;51.486;6.332;2023-04-08T12:44:32;12.95;;;7.55;;
75639;SDS011;64233;51.486;6.332;2023-04-08T12:46:57;12.88;;;7.72;;
75639;SDS011;64233;51.486;6.332;2023-04-08T12:49:22;12.10;;;6.53;;
75639;SDS011;64233;51.486;6.332;2023-04-08T12:51:47;12.75;;;7.45;;
75639;SDS011;64233;51.486;6.332;2023-04-08T12:54:13;8.53;;;5.37;;
75639;SDS011;64233;51.486;6.332;2023-04-08T12:56:38;4.07;;;3.30;;
75639;SDS011;64233;51.486;6.332;2023-04-08T12:59:03;11.63;;;7.07;;
75639;SDS011;64233;51.486;6.332;2023-04-08T13:01:28;9.00;;;6.47;;
75639;SDS011;64233;51.486;6.332;2023-04-08T13:03:54;14.23;;;7.40;;
75639;SDS011;64233;51.486;6.332;2023-04-08T13:06:19;11.23;;;7.18;;
75639;SDS011;64233;51.486;6.332;2023-04-08T13:08:44;8.63;;;6.47;;
75639;SDS011;64233;51.486;6.332;2023-04-08T13:11:11;8.75;;;6.03;;
75639;SDS011;64233;51.486;6.332;2023-04-08T13:13:36;7.93;;;6.57;;
75639;SDS011;64233;51.486;6.332;2023-04-08T13:16:01;10.75;;;6.95;;
75639;SDS011;64233;51.486;6.332;2023-04-08T13:18:27;6.10;;;3.97;;
75639;SDS011;64233;51.486;6.332;2023-04-08T13:20:52;11.73;;;7.13;;
75639;SDS011;64233;51.486;6.332;2023-04-08T13:23:18;9.50;;;5.60;;
75639;SDS011;64233;51.486;6.332;2023-04-08T13:25:43;12.05;;;7.75;;
75639;SDS011;64233;51.486;6.332;2023-04-08T13:28:09;9.35;;;5.70;;
75639;SDS011;64233;51.486;6.332;2023-04-08T13:30:35;10.57;;;7.50;;
75639;SDS011;64233;51.486;6.332;2023-04-08T13:33:00;11.37;;;7.23;;
75639;SDS011;64233;51.486;6.332;2023-04-08T13:35:25;8.65;;;5.75;;
75639;SDS011;64233;51.486;6.332;2023-04-08T13:37:50;9.85;;;7.07;;
75639;SDS011;64233;51.486;6.332;2023-04-08T13:40:15;9.13;;;5.77;;
75639;SDS011;64233;51.486;6.332;2023-04-08T13:42:41;9.90;;;6.25;;
75639;SDS011;64233;51.486;6.332;2023-04-08T13:45:07;3.22;;;2.72;;
75639;SDS011;64233;51.486;6.332;2023-04-08T13:47:32;8.27;;;5.80;;
75639;SDS011;64233;51.486;6.332;2023-04-08T13:49:57;16.90;;;7.13;;
75639;SDS011;64233;51.486;6.332;2023-04-08T13:52:22;12.47;;;7.83;;
75639;SDS011;64233;51.486;6.332;2023-04-08T13:54:47;11.33;;;6.70;;
75639;SDS011;64233;51.486;6.332;2023-04-08T13:57:12;10.73;;;5.27;;
75639;SDS011;64233;51.486;6.332;2023-04-08T13:59:38;11.10;;;6.23;;
75639;SDS011;64233;51.486;6.332;2023-04-08T14:02:03;10.37;;;6.80;;
75639;SDS011;64233;51.486;6.332;2023-04-08T14:04:28;11.80;;;6.93;;
75639;SDS011;64233;51.486;6.332;2023-04-08T14:06:53;8.37;;;6.00;;
75639;SDS011;64233;51.486;6.332;2023-04-08T14:09:19;10.50;;;7.25;;
75639;SDS011;64233;51.486;6.332;2023-04-08T14:11:44;11.52;;;6.35;;
75639;SDS011;64233;51.486;6.332;2023-04-08T14:14:10;9.85;;;6.00;;
75639;SDS011;64233;51.486;6.332;2023-04-08T14:16:35;11.43;;;7.30;;
75639;SDS011;64233;51.486;6.332;2023-04-08T14:19:01;10.87;;;7.33;;
75639;SDS011;64233;51.486;6.332;2023-04-08T14:21:27;10.73;;;6.72;;
75639;SDS011;64233;51.486;6.332;2023-04-08T14:23:52;12.83;;;6.80;;
75639;SDS011;64233;51.486;6.332;2023-04-08T14:26:17;9.40;;;6.30;;
75639;SDS011;64233;51.486;6.332;2023-04-08T14:28:42;7.95;;;5.63;;
75639;SDS011;64233;51.486;6.332;2023-04-08T14:31:07;10.07;;;5.20;;
75639;SDS011;64233;51.486;6.332;2023-04-08T14:33:32;9.80;;;5.60;;
75639;SDS011;64233;51.486;6.332;2023-04-08T14:35:58;7.33;;;5.67;;
75639;SDS011;64233;51.486;6.332;2023-04-08T14:38:23;9.52;;;6.30;;
75639;SDS011;64233;51.486;6.332;2023-04-08T14:40:48;8.07;;;5.07;;
75639;SDS011;64233;51.486;6.332;2023-04-08T14:43:14;10.93;;;7.28;;
75639;SDS011;64233;51.486;6.332;2023-04-08T14:45:39;12.30;;;6.68;;
75639;SDS011;64233;51.486;6.332;2023-04-08T14:48:05;9.20;;;6.53;;
75639;SDS011;64233;51.486;6.332;2023-04-08T14:50:30;9.02;;;6.32;;
75639;SDS011;64233;51.486;6.332;2023-04-08T14:52:55;11.02;;;7.20;;
75639;SDS011;64233;51.486;6.332;2023-04-08T14:58:22;10.18;;;5.93;;
75639;SDS011;64233;51.486;6.332;2023-04-08T15:02:13;12.18;;;7.22;;
75639;SDS011;64233;51.486;6.332;2023-04-08T15:04:45;13.82;;;5.97;;
75639;SDS011;64233;51.486;6.332;2023-04-08T15:07:10;7.00;;;4.22;;
75639;SDS011;64233;51.486;6.332;2023-04-08T15:09:35;11.07;;;6.75;;
75639;SDS011;64233;51.486;6.332;2023-04-08T15:12:01;9.93;;;5.53;;
75639;SDS011;64233;51.486;6.332;2023-04-08T15:14:26;9.48;;;6.55;;
75639;SDS011;64233;51.486;6.332;2023-04-08T15:16:51;13.02;;;6.55;;
75639;SDS011;64233;51.486;6.332;2023-04-08T15:19:17;9.10;;;5.60;;
75639;SDS011;64233;51.486;6.332;2023-04-08T15:21:45;8.52;;;4.88;;
75639;SDS011;64233;51.486;6.332;2023-04-08T15:24:10;8.77;;;5.68;;
75639;SDS011;64233;51.486;6.332;2023-04-08T15:26:35;9.77;;;4.80;;
75639;SDS011;64233;51.486;6.332;2023-04-08T15:29:00;7.25;;;4.88;;
75639;SDS011;64233;51.486;6.332;2023-04-08T15:31:28;4.88;;;4.10;;
75639;SDS011;64233;51.486;6.332;2023-04-08T15:33:53;6.90;;;4.70;;
75639;SDS011;64233;51.486;6.332;2023-04-08T15:36:18;9.32;;;7.05;;
75639;SDS011;64233;51.486;6.332;2023-04-08T15:38:44;10.00;;;5.43;;
75639;SDS011;64233;51.486;6.332;2023-04-08T15:41:20;9.32;;;5.32;;
75639;SDS011;64233;51.486;6.332;2023-04-08T15:43:46;9.32;;;5.00;;
75639;SDS011;64233;51.486;6.332;2023-04-08T15:46:18;20.42;;;9.75;;
75639;SDS011;64233;51.486;6.332;2023-04-08T15:48:44;14.65;;;8.13;;
75639;SDS011;64233;51.486;6.332;2023-04-08T15:51:10;17.13;;;8.93;;
75639;SDS011;64233;51.486;6.332;2023-04-08T15:53:38;15.82;;;7.65;;
75639;SDS011;64233;51.486;6.332;2023-04-08T15:56:03;21.17;;;10.52;;
75639;SDS011;64233;51.486;6.332;2023-04-08T15:58:29;8.15;;;5.47;;
75639;SDS011;64233;51.486;6.332;2023-04-08T16:02:41;12.93;;;8.48;;
75639;SDS011;64233;51.486;6.332;2023-04-08T16:05:13;21.10;;;10.30;;
75639;SDS011;64233;51.486;6.332;2023-04-08T16:07:38;84.10;;;35.33;;
75639;SDS011;64233;51.486;6.332;2023-04-08T16:10:04;34.25;;;18.63;;
75639;SDS011;64233;51.486;6.332;2023-04-08T16:12:29;13.43;;;9.27;;
75639;SDS011;64233;51.486;6.332;2023-04-08T16:14:55;29.83;;;17.80;;
75639;SDS011;64233;51.486;6.332;2023-04-08T16:17:20;36.33;;;20.80;;
75639;SDS011;64233;51.486;6.332;2023-04-08T16:19:46;22.90;;;12.65;;
75639;SDS011;64233;51.486;6.332;2023-04-08T16:22:11;19.98;;;10.88;;
75639;SDS011;64233;51.486;6.332;2023-04-08T16:24:37;32.67;;;20.25;;
75639;SDS011;64233;51.486;6.332;2023-04-08T16:27:02;19.50;;;12.18;;